Terminal Aerodrome Forecast
Issued by NWS

Home | Current Version | Previous Version | Text Only | Print | Product List | Glossary On
Versions: 1 2 3 4 5 6 7 8 9 10 11 12 13
000
FTUS42 TJSJ 290500 RRA
TAFJSJ
TAF
TJSJ 290539Z 2906/3006 VRB03KT P6SM FEW030
     FM290750 11004KT P6SM VCSH FEW025 SCT035
     FM291400 07014KT P6SM FEW030 SCT050
     FM292200 10006KT P6SM FEW035=

USA.gov is the U.S. government's official web portal to all federal, state and local government web resources and services.